sensor_id;sensor_type;location;lat;lon;timestamp;P1;durP1;ratioP1;P2;durP2;ratioP2
18019;SDS011;9135;48.362;10.878;2023-05-21T00:01:51;3.95;;;3.58;;
18019;SDS011;9135;48.362;10.878;2023-05-21T00:04:17;6.85;;;4.50;;
18019;SDS011;9135;48.362;10.878;2023-05-21T00:06:43;5.82;;;3.42;;
18019;SDS011;9135;48.362;10.878;2023-05-21T00:09:09;5.90;;;3.55;;
18019;SDS011;9135;48.362;10.878;2023-05-21T00:11:36;5.57;;;4.82;;
18019;SDS011;9135;48.362;10.878;2023-05-21T00:14:02;5.13;;;3.70;;
18019;SDS011;9135;48.362;10.878;2023-05-21T00:16:28;7.30;;;4.47;;
18019;SDS011;9135;48.362;10.878;2023-05-21T00:18:54;7.07;;;3.35;;
18019;SDS011;9135;48.362;10.878;2023-05-21T00:21:22;6.53;;;3.83;;
18019;SDS011;9135;48.362;10.878;2023-05-21T00:23:50;5.07;;;4.10;;
18019;SDS011;9135;48.362;10.878;2023-05-21T00:26:18;4.72;;;3.92;;
18019;SDS011;9135;48.362;10.878;2023-05-21T00:28:44;5.22;;;4.03;;
18019;SDS011;9135;48.362;10.878;2023-05-21T00:31:10;6.30;;;4.53;;
18019;SDS011;9135;48.362;10.878;2023-05-21T00:33:36;8.25;;;3.78;;
18019;SDS011;9135;48.362;10.878;2023-05-21T00:36:02;4.43;;;3.72;;
18019;SDS011;9135;48.362;10.878;2023-05-21T00:38:30;7.78;;;3.83;;
18019;SDS011;9135;48.362;10.878;2023-05-21T00:40:58;5.78;;;3.70;;
18019;SDS011;9135;48.362;10.878;2023-05-21T00:43:24;4.93;;;3.25;;
18019;SDS011;9135;48.362;10.878;2023-05-21T00:45:50;4.70;;;3.85;;
18019;SDS011;9135;48.362;10.878;2023-05-21T00:48:17;6.15;;;3.58;;
18019;SDS011;9135;48.362;10.878;2023-05-21T00:50:44;8.55;;;5.40;;
18019;SDS011;9135;48.362;10.878;2023-05-21T00:53:10;5.30;;;4.70;;
18019;SDS011;9135;48.362;10.878;2023-05-21T00:55:36;7.20;;;4.10;;
18019;SDS011;9135;48.362;10.878;2023-05-21T00:58:03;4.20;;;3.78;;
18019;SDS011;9135;48.362;10.878;2023-05-21T01:00:32;3.83;;;3.53;;
18019;SDS011;9135;48.362;10.878;2023-05-21T01:03:01;7.30;;;4.57;;
18019;SDS011;9135;48.362;10.878;2023-05-21T01:05:28;4.18;;;3.78;;
18019;SDS011;9135;48.362;10.878;2023-05-21T01:07:55;5.22;;;3.50;;
18019;SDS011;9135;48.362;10.878;2023-05-21T01:10:22;5.22;;;3.40;;
18019;SDS011;9135;48.362;10.878;2023-05-21T01:12:48;9.82;;;4.50;;
18019;SDS011;9135;48.362;10.878;2023-05-21T01:15:15;5.13;;;4.32;;
18019;SDS011;9135;48.362;10.878;2023-05-21T01:17:41;5.65;;;3.70;;
18019;SDS011;9135;48.362;10.878;2023-05-21T01:20:09;5.65;;;3.05;;
18019;SDS011;9135;48.362;10.878;2023-05-21T01:22:57;5.25;;;3.75;;
18019;SDS011;9135;48.362;10.878;2023-05-21T01:25:22;11.50;;;5.35;;
18019;SDS011;9135;48.362;10.878;2023-05-21T01:27:48;5.93;;;4.43;;
18019;SDS011;9135;48.362;10.878;2023-05-21T01:30:15;5.78;;;3.58;;
18019;SDS011;9135;48.362;10.878;2023-05-21T01:35:53;6.65;;;4.97;;
18019;SDS011;9135;48.362;10.878;2023-05-21T01:43:19;7.40;;;3.53;;
18019;SDS011;9135;48.362;10.878;2023-05-21T01:45:47;4.22;;;3.83;;
18019;SDS011;9135;48.362;10.878;2023-05-21T01:48:15;6.38;;;4.93;;
18019;SDS011;9135;48.362;10.878;2023-05-21T01:50:42;6.80;;;5.40;;
18019;SDS011;9135;48.362;10.878;2023-05-21T01:53:09;7.20;;;4.65;;
18019;SDS011;9135;48.362;10.878;2023-05-21T01:55:35;6.20;;;3.67;;
18019;SDS011;9135;48.362;10.878;2023-05-21T01:58:05;5.30;;;3.78;;
18019;SDS011;9135;48.362;10.878;2023-05-21T02:00:32;6.43;;;3.85;;
18019;SDS011;9135;48.362;10.878;2023-05-21T02:02:58;5.22;;;3.75;;
18019;SDS011;9135;48.362;10.878;2023-05-21T02:05:24;5.28;;;3.80;;
18019;SDS011;9135;48.362;10.878;2023-05-21T02:07:50;5.03;;;4.22;;
18019;SDS011;9135;48.362;10.878;2023-05-21T02:10:16;7.03;;;4.25;;
18019;SDS011;9135;48.362;10.878;2023-05-21T02:12:43;5.00;;;4.00;;
18019;SDS011;9135;48.362;10.878;2023-05-21T02:15:09;6.63;;;4.10;;
18019;SDS011;9135;48.362;10.878;2023-05-21T02:17:35;5.10;;;4.65;;
18019;SDS011;9135;48.362;10.878;2023-05-21T02:20:03;6.95;;;4.80;;
18019;SDS011;9135;48.362;10.878;2023-05-21T02:22:45;8.18;;;4.15;;
18019;SDS011;9135;48.362;10.878;2023-05-21T02:25:12;6.07;;;4.53;;
18019;SDS011;9135;48.362;10.878;2023-05-21T02:27:39;5.53;;;4.47;;
18019;SDS011;9135;48.362;10.878;2023-05-21T02:30:06;4.78;;;4.05;;
18019;SDS011;9135;48.362;10.878;2023-05-21T02:32:33;8.07;;;4.53;;
18019;SDS011;9135;48.362;10.878;2023-05-21T02:34:59;4.43;;;3.25;;
18019;SDS011;9135;48.362;10.878;2023-05-21T02:37:26;4.45;;;4.05;;
18019;SDS011;9135;48.362;10.878;2023-05-21T02:39:55;9.60;;;3.90;;
18019;SDS011;9135;48.362;10.878;2023-05-21T02:42:21;4.95;;;3.92;;
18019;SDS011;9135;48.362;10.878;2023-05-21T02:44:48;4.65;;;3.47;;
18019;SDS011;9135;48.362;10.878;2023-05-21T02:47:14;5.38;;;3.63;;
18019;SDS011;9135;48.362;10.878;2023-05-21T02:49:41;6.82;;;5.03;;
18019;SDS011;9135;48.362;10.878;2023-05-21T02:52:07;3.65;;;3.35;;
18019;SDS011;9135;48.362;10.878;2023-05-21T02:54:33;4.28;;;3.88;;
18019;SDS011;9135;48.362;10.878;2023-05-21T02:56:59;4.65;;;3.83;;
18019;SDS011;9135;48.362;10.878;2023-05-21T02:59:25;4.25;;;3.38;;
18019;SDS011;9135;48.362;10.878;2023-05-21T03:01:51;8.32;;;4.75;;
18019;SDS011;9135;48.362;10.878;2023-05-21T03:04:17;8.15;;;4.57;;
18019;SDS011;9135;48.362;10.878;2023-05-21T03:06:45;7.18;;;4.53;;
18019;SDS011;9135;48.362;10.878;2023-05-21T03:09:12;6.65;;;3.78;;
18019;SDS011;9135;48.362;10.878;2023-05-21T03:11:38;7.70;;;4.65;;
18019;SDS011;9135;48.362;10.878;2023-05-21T03:14:04;5.07;;;4.50;;
18019;SDS011;9135;48.362;10.878;2023-05-21T03:16:31;5.43;;;3.50;;
18019;SDS011;9135;48.362;10.878;2023-05-21T03:18:58;7.97;;;4.65;;
18019;SDS011;9135;48.362;10.878;2023-05-21T03:21:24;4.95;;;3.30;;
18019;SDS011;9135;48.362;10.878;2023-05-21T03:23:54;8.05;;;4.88;;
18019;SDS011;9135;48.362;10.878;2023-05-21T03:26:23;6.68;;;3.88;;
18019;SDS011;9135;48.362;10.878;2023-05-21T03:28:51;4.97;;;3.47;;
18019;SDS011;9135;48.362;10.878;2023-05-21T03:31:17;4.07;;;3.72;;
18019;SDS011;9135;48.362;10.878;2023-05-21T03:33:43;7.00;;;4.30;;
18019;SDS011;9135;48.362;10.878;2023-05-21T03:36:09;4.85;;;3.92;;
18019;SDS011;9135;48.362;10.878;2023-05-21T03:38:35;4.60;;;4.13;;
18019;SDS011;9135;48.362;10.878;2023-05-21T03:41:01;4.45;;;3.80;;
18019;SDS011;9135;48.362;10.878;2023-05-21T03:43:27;4.07;;;3.78;;
18019;SDS011;9135;48.362;10.878;2023-05-21T03:45:53;5.63;;;3.72;;
18019;SDS011;9135;48.362;10.878;2023-05-21T03:48:20;4.15;;;3.47;;
18019;SDS011;9135;48.362;10.878;2023-05-21T03:50:46;6.13;;;3.03;;
18019;SDS011;9135;48.362;10.878;2023-05-21T03:53:12;5.30;;;4.07;;
18019;SDS011;9135;48.362;10.878;2023-05-21T03:55:38;3.20;;;2.90;;
18019;SDS011;9135;48.362;10.878;2023-05-21T03:58:04;5.72;;;3.75;;
18019;SDS011;9135;48.362;10.878;2023-05-21T04:00:30;8.15;;;5.30;;
18019;SDS011;9135;48.362;10.878;2023-05-21T04:02:58;5.70;;;4.60;;
18019;SDS011;9135;48.362;10.878;2023-05-21T04:05:24;6.00;;;4.28;;
18019;SDS011;9135;48.362;10.878;2023-05-21T04:07:50;3.88;;;2.85;;
18019;SDS011;9135;48.362;10.878;2023-05-21T04:10:16;3.30;;;2.83;;
18019;SDS011;9135;48.362;10.878;2023-05-21T04:12:42;6.43;;;4.55;;
18019;SDS011;9135;48.362;10.878;2023-05-21T04:15:08;6.28;;;3.20;;
18019;SDS011;9135;48.362;10.878;2023-05-21T04:17:34;5.55;;;3.97;;
18019;SDS011;9135;48.362;10.878;2023-05-21T04:20:00;4.43;;;2.88;;
18019;SDS011;9135;48.362;10.878;2023-05-21T04:22:27;4.43;;;2.88;;
18019;SDS011;9135;48.362;10.878;2023-05-21T04:24:53;4.28;;;2.67;;
18019;SDS011;9135;48.362;10.878;2023-05-21T04:27:22;2.42;;;2.22;;
18019;SDS011;9135;48.362;10.878;2023-05-21T04:29:49;3.72;;;3.42;;
18019;SDS011;9135;48.362;10.878;2023-05-21T04:32:15;5.63;;;3.70;;
18019;SDS011;9135;48.362;10.878;2023-05-21T04:34:42;3.63;;;2.88;;
18019;SDS011;9135;48.362;10.878;2023-05-21T04:37:08;4.85;;;4.13;;
18019;SDS011;9135;48.362;10.878;2023-05-21T04:39:34;5.57;;;3.33;;
18019;SDS011;9135;48.362;10.878;2023-05-21T04:42:00;5.43;;;3.35;;
18019;SDS011;9135;48.362;10.878;2023-05-21T04:44:29;6.60;;;3.33;;
18019;SDS011;9135;48.362;10.878;2023-05-21T04:46:55;4.00;;;3.33;;
18019;SDS011;9135;48.362;10.878;2023-05-21T04:49:22;3.58;;;2.95;;
18019;SDS011;9135;48.362;10.878;2023-05-21T04:51:49;3.10;;;2.72;;
18019;SDS011;9135;48.362;10.878;2023-05-21T04:54:15;5.28;;;4.07;;
18019;SDS011;9135;48.362;10.878;2023-05-21T04:56:41;4.43;;;4.03;;
18019;SDS011;9135;48.362;10.878;2023-05-21T04:59:08;4.50;;;3.25;;
18019;SDS011;9135;48.362;10.878;2023-05-21T05:01:34;3.67;;;3.08;;
18019;SDS011;9135;48.362;10.878;2023-05-21T05:04:02;3.35;;;2.85;;
18019;SDS011;9135;48.362;10.878;2023-05-21T05:06:28;3.60;;;3.25;;
18019;SDS011;9135;48.362;10.878;2023-05-21T05:08:55;7.47;;;3.70;;
18019;SDS011;9135;48.362;10.878;2023-05-21T05:11:21;2.85;;;2.65;;
18019;SDS011;9135;48.362;10.878;2023-05-21T05:13:47;4.05;;;2.75;;
18019;SDS011;9135;48.362;10.878;2023-05-21T05:16:13;5.22;;;3.25;;
18019;SDS011;9135;48.362;10.878;2023-05-21T05:18:42;4.30;;;3.33;;
18019;SDS011;9135;48.362;10.878;2023-05-21T05:21:08;3.85;;;3.42;;
18019;SDS011;9135;48.362;10.878;2023-05-21T05:23:34;2.80;;;2.53;;
18019;SDS011;9135;48.362;10.878;2023-05-21T05:26:00;3.00;;;2.75;;
18019;SDS011;9135;48.362;10.878;2023-05-21T05:28:26;4.40;;;3.30;;
18019;SDS011;9135;48.362;10.878;2023-05-21T05:30:52;4.20;;;3.08;;
18019;SDS011;9135;48.362;10.878;2023-05-21T05:33:18;3.00;;;2.60;;
18019;SDS011;9135;48.362;10.878;2023-05-21T05:35:44;2.92;;;2.63;;
18019;SDS011;9135;48.362;10.878;2023-05-21T05:38:11;3.25;;;2.50;;
18019;SDS011;9135;48.362;10.878;2023-05-21T05:40:37;6.90;;;2.55;;
18019;SDS011;9135;48.362;10.878;2023-05-21T05:43:03;4.70;;;3.63;;
18019;SDS011;9135;48.362;10.878;2023-05-21T05:45:29;2.95;;;2.72;;
18019;SDS011;9135;48.362;10.878;2023-05-21T05:47:55;3.50;;;3.17;;
18019;SDS011;9135;48.362;10.878;2023-05-21T05:50:21;3.28;;;2.65;;
18019;SDS011;9135;48.362;10.878;2023-05-21T05:52:47;3.08;;;2.25;;
18019;SDS011;9135;48.362;10.878;2023-05-21T05:55:14;2.80;;;2.58;;
18019;SDS011;9135;48.362;10.878;2023-05-21T05:57:40;2.95;;;2.65;;
18019;SDS011;9135;48.362;10.878;2023-05-21T06:00:06;8.23;;;3.67;;
18019;SDS011;9135;48.362;10.878;2023-05-21T06:02:34;4.00;;;3.50;;
18019;SDS011;9135;48.362;10.878;2023-05-21T06:05:01;3.45;;;2.40;;
18019;SDS011;9135;48.362;10.878;2023-05-21T06:07:27;6.13;;;3.40;;
18019;SDS011;9135;48.362;10.878;2023-05-21T06:09:54;3.53;;;3.05;;
18019;SDS011;9135;48.362;10.878;2023-05-21T06:12:20;4.43;;;3.15;;
18019;SDS011;9135;48.362;10.878;2023-05-21T06:14:46;13.35;;;3.80;;
18019;SDS011;9135;48.362;10.878;2023-05-21T06:17:13;4.00;;;3.63;;
18019;SDS011;9135;48.362;10.878;2023-05-21T06:19:39;5.28;;;2.50;;
18019;SDS011;9135;48.362;10.878;2023-05-21T06:22:05;4.85;;;3.17;;
18019;SDS011;9135;48.362;10.878;2023-05-21T06:24:31;4.30;;;2.55;;
18019;SDS011;9135;48.362;10.878;2023-05-21T06:26:57;4.22;;;3.13;;
18019;SDS011;9135;48.362;10.878;2023-05-21T06:29:23;5.22;;;3.28;;
18019;SDS011;9135;48.362;10.878;2023-05-21T06:31:49;3.55;;;2.72;;
18019;SDS011;9135;48.362;10.878;2023-05-21T06:34:15;3.75;;;3.00;;
18019;SDS011;9135;48.362;10.878;2023-05-21T06:36:41;2.97;;;2.58;;
18019;SDS011;9135;48.362;10.878;2023-05-21T06:39:07;3.33;;;3.03;;
18019;SDS011;9135;48.362;10.878;2023-05-21T06:41:34;4.57;;;3.40;;
18019;SDS011;9135;48.362;10.878;2023-05-21T06:44:00;3.85;;;2.53;;
18019;SDS011;9135;48.362;10.878;2023-05-21T06:46:26;3.13;;;2.63;;
18019;SDS011;9135;48.362;10.878;2023-05-21T06:48:52;3.22;;;2.80;;
18019;SDS011;9135;48.362;10.878;2023-05-21T06:51:18;2.30;;;2.10;;
18019;SDS011;9135;48.362;10.878;2023-05-21T06:53:44;5.30;;;3.75;;
18019;SDS011;9135;48.362;10.878;2023-05-21T06:56:10;5.60;;;2.92;;
18019;SDS011;9135;48.362;10.878;2023-05-21T06:58:37;4.68;;;3.55;;
18019;SDS011;9135;48.362;10.878;2023-05-21T07:01:03;5.70;;;2.67;;
18019;SDS011;9135;48.362;10.878;2023-05-21T07:03:29;5.70;;;3.58;;
18019;SDS011;9135;48.362;10.878;2023-05-21T07:05:56;3.35;;;2.38;;
18019;SDS011;9135;48.362;10.878;2023-05-21T07:08:22;3.20;;;2.58;;
18019;SDS011;9135;48.362;10.878;2023-05-21T07:10:48;3.47;;;2.58;;
18019;SDS011;9135;48.362;10.878;2023-05-21T07:13:14;4.35;;;3.05;;
18019;SDS011;9135;48.362;10.878;2023-05-21T07:15:41;4.53;;;2.65;;
18019;SDS011;9135;48.362;10.878;2023-05-21T07:18:07;3.83;;;2.90;;
18019;SDS011;9135;48.362;10.878;2023-05-21T07:20:33;3.25;;;2.90;;
18019;SDS011;9135;48.362;10.878;2023-05-21T07:22:59;5.22;;;3.38;;
18019;SDS011;9135;48.362;10.878;2023-05-21T07:25:25;4.53;;;3.33;;
18019;SDS011;9135;48.362;10.878;2023-05-21T07:27:51;2.03;;;1.92;;
18019;SDS011;9135;48.362;10.878;2023-05-21T07:30:17;2.60;;;2.40;;
18019;SDS011;9135;48.362;10.878;2023-05-21T07:32:44;3.72;;;2.75;;
18019;SDS011;9135;48.362;10.878;2023-05-21T07:35:10;6.35;;;3.17;;
18019;SDS011;9135;48.362;10.878;2023-05-21T07:37:36;5.40;;;2.17;;
18019;SDS011;9135;48.362;10.878;2023-05-21T07:40:02;5.07;;;2.85;;
18019;SDS011;9135;48.362;10.878;2023-05-21T07:42:30;2.42;;;2.20;;
18019;SDS011;9135;48.362;10.878;2023-05-21T07:44:56;2.92;;;1.92;;
18019;SDS011;9135;48.362;10.878;2023-05-21T07:47:22;4.97;;;2.63;;
18019;SDS011;9135;48.362;10.878;2023-05-21T07:49:48;2.42;;;2.22;;
18019;SDS011;9135;48.362;10.878;2023-05-21T07:52:14;2.17;;;1.90;;
18019;SDS011;9135;48.362;10.878;2023-05-21T07:54:40;4.72;;;2.63;;
18019;SDS011;9135;48.362;10.878;2023-05-21T07:57:06;3.83;;;2.10;;
18019;SDS011;9135;48.362;10.878;2023-05-21T07:59:32;3.25;;;2.35;;
18019;SDS011;9135;48.362;10.878;2023-05-21T08:01:59;5.50;;;3.22;;
18019;SDS011;9135;48.362;10.878;2023-05-21T08:04:25;5.22;;;3.15;;
18019;SDS011;9135;48.362;10.878;2023-05-21T08:06:51;2.33;;;2.10;;
18019;SDS011;9135;48.362;10.878;2023-05-21T08:09:17;2.97;;;2.47;;
18019;SDS011;9135;48.362;10.878;2023-05-21T08:11:44;3.35;;;3.05;;
18019;SDS011;9135;48.362;10.878;2023-05-21T08:14:10;3.50;;;2.67;;
18019;SDS011;9135;48.362;10.878;2023-05-21T08:16:36;2.83;;;2.60;;
18019;SDS011;9135;48.362;10.878;2023-05-21T08:19:03;3.65;;;2.20;;
18019;SDS011;9135;48.362;10.878;2023-05-21T08:21:29;5.72;;;2.85;;
18019;SDS011;9135;48.362;10.878;2023-05-21T08:23:56;2.60;;;2.40;;
18019;SDS011;9135;48.362;10.878;2023-05-21T08:26:24;2.78;;;2.42;;
18019;SDS011;9135;48.362;10.878;2023-05-21T08:28:50;3.15;;;2.33;;
18019;SDS011;9135;48.362;10.878;2023-05-21T08:31:17;3.00;;;2.47;;
18019;SDS011;9135;48.362;10.878;2023-05-21T08:33:49;6.47;;;3.20;;
18019;SDS011;9135;48.362;10.878;2023-05-21T08:36:16;3.45;;;2.60;;
18019;SDS011;9135;48.362;10.878;2023-05-21T08:38:42;3.33;;;2.28;;
18019;SDS011;9135;48.362;10.878;2023-05-21T08:41:10;2.90;;;2.70;;
18019;SDS011;9135;48.362;10.878;2023-05-21T08:43:36;2.90;;;2.15;;
18019;SDS011;9135;48.362;10.878;2023-05-21T08:46:03;2.35;;;2.15;;
18019;SDS011;9135;48.362;10.878;2023-05-21T08:48:30;2.65;;;2.28;;
18019;SDS011;9135;48.362;10.878;2023-05-21T08:50:57;4.63;;;3.25;;
18019;SDS011;9135;48.362;10.878;2023-05-21T08:53:23;3.95;;;2.70;;
18019;SDS011;9135;48.362;10.878;2023-05-21T08:55:51;3.42;;;2.45;;
18019;SDS011;9135;48.362;10.878;2023-05-21T08:58:19;2.72;;;1.98;;
18019;SDS011;9135;48.362;10.878;2023-05-21T09:00:45;2.45;;;2.17;;
18019;SDS011;9135;48.362;10.878;2023-05-21T09:03:11;2.97;;;2.67;;
18019;SDS011;9135;48.362;10.878;2023-05-21T09:05:43;3.10;;;2.47;;
18019;SDS011;9135;48.362;10.878;2023-05-21T09:10:37;2.92;;;2.33;;
18019;SDS011;9135;48.362;10.878;2023-05-21T09:13:03;4.22;;;2.78;;
18019;SDS011;9135;48.362;10.878;2023-05-21T09:15:31;5.10;;;2.50;;
18019;SDS011;9135;48.362;10.878;2023-05-21T09:17:57;2.60;;;2.03;;
18019;SDS011;9135;48.362;10.878;2023-05-21T09:20:24;3.50;;;2.17;;
18019;SDS011;9135;48.362;10.878;2023-05-21T09:22:51;6.28;;;3.13;;
18019;SDS011;9135;48.362;10.878;2023-05-21T09:25:20;3.70;;;2.70;;
18019;SDS011;9135;48.362;10.878;2023-05-21T09:27:46;3.00;;;2.30;;
18019;SDS011;9135;48.362;10.878;2023-05-21T09:30:13;5.10;;;2.58;;
18019;SDS011;9135;48.362;10.878;2023-05-21T09:32:40;4.68;;;2.50;;
18019;SDS011;9135;48.362;10.878;2023-05-21T09:35:06;3.45;;;2.30;;
18019;SDS011;9135;48.362;10.878;2023-05-21T09:37:43;1.95;;;1.85;;
18019;SDS011;9135;48.362;10.878;2023-05-21T09:42:37;3.47;;;2.92;;
18019;SDS011;9135;48.362;10.878;2023-05-21T09:45:04;3.53;;;3.13;;
18019;SDS011;9135;48.362;10.878;2023-05-21T09:47:30;2.53;;;2.28;;
18019;SDS011;9135;48.362;10.878;2023-05-21T09:49:59;4.97;;;3.78;;
18019;SDS011;9135;48.362;10.878;2023-05-21T09:52:26;3.60;;;2.42;;
18019;SDS011;9135;48.362;10.878;2023-05-21T09:54:53;2.40;;;2.08;;
18019;SDS011;9135;48.362;10.878;2023-05-21T09:57:23;2.60;;;2.13;;
18019;SDS011;9135;48.362;10.878;2023-05-21T09:59:49;3.25;;;2.00;;
18019;SDS011;9135;48.362;10.878;2023-05-21T10:02:22;3.90;;;2.67;;
18019;SDS011;9135;48.362;10.878;2023-05-21T10:04:49;3.88;;;2.30;;
18019;SDS011;9135;48.362;10.878;2023-05-21T10:07:17;3.05;;;2.38;;
18019;SDS011;9135;48.362;10.878;2023-05-21T10:09:45;11.77;;;2.20;;
18019;SDS011;9135;48.362;10.878;2023-05-21T10:12:13;3.95;;;2.63;;
18019;SDS011;9135;48.362;10.878;2023-05-21T10:14:39;2.13;;;1.83;;
18019;SDS011;9135;48.362;10.878;2023-05-21T10:17:06;4.82;;;2.45;;
18019;SDS011;9135;48.362;10.878;2023-05-21T10:19:33;4.65;;;2.78;;
18019;SDS011;9135;48.362;10.878;2023-05-21T10:22:00;4.78;;;3.33;;
18019;SDS011;9135;48.362;10.878;2023-05-21T10:24:28;2.45;;;2.08;;
18019;SDS011;9135;48.362;10.878;2023-05-21T10:26:54;2.35;;;2.10;;
18019;SDS011;9135;48.362;10.878;2023-05-21T10:29:20;3.58;;;2.25;;
18019;SDS011;9135;48.362;10.878;2023-05-21T10:31:47;3.10;;;2.60;;
18019;SDS011;9135;48.362;10.878;2023-05-21T10:34:14;7.30;;;3.40;;
18019;SDS011;9135;48.362;10.878;2023-05-21T10:36:40;3.95;;;3.20;;
18019;SDS011;9135;48.362;10.878;2023-05-21T10:39:08;1.67;;;1.52;;
18019;SDS011;9135;48.362;10.878;2023-05-21T10:41:50;2.08;;;1.70;;
18019;SDS011;9135;48.362;10.878;2023-05-21T10:44:25;3.03;;;1.90;;
18019;SDS011;9135;48.362;10.878;2023-05-21T10:47:08;3.72;;;2.53;;
18019;SDS011;9135;48.362;10.878;2023-05-21T10:49:53;3.55;;;2.63;;
18019;SDS011;9135;48.362;10.878;2023-05-21T10:54:51;3.33;;;2.20;;
18019;SDS011;9135;48.362;10.878;2023-05-21T10:57:31;4.43;;;2.33;;
18019;SDS011;9135;48.362;10.878;2023-05-21T10:59:59;2.17;;;2.05;;
18019;SDS011;9135;48.362;10.878;2023-05-21T11:02:25;2.75;;;2.35;;
18019;SDS011;9135;48.362;10.878;2023-05-21T11:04:58;2.95;;;1.98;;
18019;SDS011;9135;48.362;10.878;2023-05-21T11:13:09;3.10;;;2.58;;
18019;SDS011;9135;48.362;10.878;2023-05-21T11:18:21;2.90;;;2.38;;
18019;SDS011;9135;48.362;10.878;2023-05-21T11:20:51;2.17;;;1.63;;
18019;SDS011;9135;48.362;10.878;2023-05-21T11:23:17;2.95;;;2.03;;
18019;SDS011;9135;48.362;10.878;2023-05-21T11:25:43;2.67;;;2.10;;
18019;SDS011;9135;48.362;10.878;2023-05-21T11:28:09;2.65;;;2.10;;
18019;SDS011;9135;48.362;10.878;2023-05-21T11:30:35;6.93;;;3.50;;
18019;SDS011;9135;48.362;10.878;2023-05-21T11:35:35;2.22;;;2.03;;
18019;SDS011;9135;48.362;10.878;2023-05-21T11:38:03;3.35;;;2.78;;
18019;SDS011;9135;48.362;10.878;2023-05-21T11:40:29;3.53;;;3.17;;
18019;SDS011;9135;48.362;10.878;2023-05-21T11:42:55;2.53;;;2.33;;
18019;SDS011;9135;48.362;10.878;2023-05-21T11:45:27;3.33;;;2.38;;
18019;SDS011;9135;48.362;10.878;2023-05-21T11:47:57;2.75;;;2.28;;
18019;SDS011;9135;48.362;10.878;2023-05-21T11:50:24;2.67;;;1.98;;
18019;SDS011;9135;48.362;10.878;2023-05-21T11:52:50;3.03;;;2.40;;
18019;SDS011;9135;48.362;10.878;2023-05-21T11:55:25;3.08;;;2.28;;
18019;SDS011;9135;48.362;10.878;2023-05-21T11:57:51;2.65;;;2.42;;
18019;SDS011;9135;48.362;10.878;2023-05-21T12:00:18;3.30;;;2.40;;
18019;SDS011;9135;48.362;10.878;2023-05-21T12:02:45;3.88;;;2.83;;
18019;SDS011;9135;48.362;10.878;2023-05-21T12:05:11;4.95;;;3.17;;
18019;SDS011;9135;48.362;10.878;2023-05-21T12:07:37;2.35;;;2.15;;
18019;SDS011;9135;48.362;10.878;2023-05-21T12:10:03;4.15;;;3.38;;
18019;SDS011;9135;48.362;10.878;2023-05-21T12:12:30;3.20;;;2.90;;
18019;SDS011;9135;48.362;10.878;2023-05-21T12:14:57;5.68;;;2.80;;
18019;SDS011;9135;48.362;10.878;2023-05-21T12:17:23;2.40;;;2.30;;
18019;SDS011;9135;48.362;10.878;2023-05-21T12:19:51;4.45;;;3.17;;
18019;SDS011;9135;48.362;10.878;2023-05-21T12:22:17;4.30;;;3.15;;
18019;SDS011;9135;48.362;10.878;2023-05-21T12:24:43;3.08;;;2.42;;
18019;SDS011;9135;48.362;10.878;2023-05-21T12:27:10;3.38;;;2.92;;
18019;SDS011;9135;48.362;10.878;2023-05-21T12:29:38;3.67;;;2.45;;
18019;SDS011;9135;48.362;10.878;2023-05-21T12:32:08;3.10;;;2.13;;
18019;SDS011;9135;48.362;10.878;2023-05-21T12:37:23;3.55;;;2.40;;
18019;SDS011;9135;48.362;10.878;2023-05-21T12:39:53;2.83;;;2.33;;
18019;SDS011;9135;48.362;10.878;2023-05-21T12:42:29;4.95;;;2.90;;
18019;SDS011;9135;48.362;10.878;2023-05-21T12:44:56;2.78;;;2.08;;
18019;SDS011;9135;48.362;10.878;2023-05-21T12:47:23;3.53;;;2.55;;
18019;SDS011;9135;48.362;10.878;2023-05-21T12:49:52;3.72;;;3.08;;
18019;SDS011;9135;48.362;10.878;2023-05-21T12:52:19;3.60;;;2.35;;
18019;SDS011;9135;48.362;10.878;2023-05-21T12:54:48;4.43;;;2.78;;
18019;SDS011;9135;48.362;10.878;2023-05-21T12:57:16;2.58;;;2.03;;
18019;SDS011;9135;48.362;10.878;2023-05-21T12:59:52;2.25;;;2.05;;
18019;SDS011;9135;48.362;10.878;2023-05-21T13:04:46;3.45;;;2.55;;
18019;SDS011;9135;48.362;10.878;2023-05-21T13:07:16;2.97;;;2.58;;
18019;SDS011;9135;48.362;10.878;2023-05-21T13:09:43;4.43;;;3.38;;
18019;SDS011;9135;48.362;10.878;2023-05-21T13:12:09;5.00;;;3.00;;
18019;SDS011;9135;48.362;10.878;2023-05-21T13:14:36;6.63;;;3.35;;
18019;SDS011;9135;48.362;10.878;2023-05-21T13:17:02;3.97;;;2.47;;
18019;SDS011;9135;48.362;10.878;2023-05-21T13:19:28;3.92;;;2.58;;
18019;SDS011;9135;48.362;10.878;2023-05-21T13:21:54;3.08;;;2.10;;
18019;SDS011;9135;48.362;10.878;2023-05-21T13:24:20;3.13;;;2.53;;
18019;SDS011;9135;48.362;10.878;2023-05-21T13:26:46;2.95;;;2.38;;
18019;SDS011;9135;48.362;10.878;2023-05-21T13:29:12;2.63;;;2.42;;
18019;SDS011;9135;48.362;10.878;2023-05-21T13:31:40;2.47;;;1.95;;
18019;SDS011;9135;48.362;10.878;2023-05-21T13:34:06;3.05;;;2.30;;
18019;SDS011;9135;48.362;10.878;2023-05-21T13:36:32;2.97;;;2.60;;
18019;SDS011;9135;48.362;10.878;2023-05-21T13:38:58;2.38;;;2.13;;
18019;SDS011;9135;48.362;10.878;2023-05-21T13:41:24;3.22;;;2.08;;
18019;SDS011;9135;48.362;10.878;2023-05-21T13:43:50;2.50;;;2.08;;
18019;SDS011;9135;48.362;10.878;2023-05-21T13:46:16;2.88;;;2.20;;
18019;SDS011;9135;48.362;10.878;2023-05-21T13:48:42;2.50;;;2.28;;
18019;SDS011;9135;48.362;10.878;2023-05-21T13:51:09;4.15;;;2.15;;
18019;SDS011;9135;48.362;10.878;2023-05-21T13:53:35;2.20;;;2.00;;
18019;SDS011;9135;48.362;10.878;2023-05-21T13:56:01;2.95;;;1.80;;
18019;SDS011;9135;48.362;10.878;2023-05-21T13:58:27;3.28;;;2.53;;
18019;SDS011;9135;48.362;10.878;2023-05-21T14:00:58;5.10;;;2.15;;
18019;SDS011;9135;48.362;10.878;2023-05-21T14:03:24;4.10;;;2.50;;
18019;SDS011;9135;48.362;10.878;2023-05-21T14:05:51;2.67;;;1.95;;
18019;SDS011;9135;48.362;10.878;2023-05-21T14:08:18;2.65;;;2.30;;
18019;SDS011;9135;48.362;10.878;2023-05-21T14:10:45;2.83;;;2.20;;
18019;SDS011;9135;48.362;10.878;2023-05-21T14:13:11;2.92;;;2.22;;
18019;SDS011;9135;48.362;10.878;2023-05-21T14:15:37;2.58;;;1.58;;
18019;SDS011;9135;48.362;10.878;2023-05-21T14:18:04;2.85;;;2.22;;
18019;SDS011;9135;48.362;10.878;2023-05-21T14:20:34;2.03;;;1.88;;
18019;SDS011;9135;48.362;10.878;2023-05-21T14:23:00;3.58;;;2.58;;
18019;SDS011;9135;48.362;10.878;2023-05-21T14:25:26;2.20;;;1.75;;
18019;SDS011;9135;48.362;10.878;2023-05-21T14:27:52;2.53;;;2.08;;
18019;SDS011;9135;48.362;10.878;2023-05-21T14:30:18;2.95;;;2.67;;
18019;SDS011;9135;48.362;10.878;2023-05-21T14:32:45;1.95;;;1.80;;
18019;SDS011;9135;48.362;10.878;2023-05-21T14:35:11;3.13;;;1.73;;
18019;SDS011;9135;48.362;10.878;2023-05-21T14:37:37;2.33;;;2.13;;
18019;SDS011;9135;48.362;10.878;2023-05-21T14:40:03;3.60;;;2.60;;
18019;SDS011;9135;48.362;10.878;2023-05-21T14:42:31;2.88;;;2.05;;
18019;SDS011;9135;48.362;10.878;2023-05-21T14:44:57;2.80;;;2.42;;
18019;SDS011;9135;48.362;10.878;2023-05-21T14:47:24;2.40;;;2.17;;
18019;SDS011;9135;48.362;10.878;2023-05-21T14:49:50;2.80;;;2.17;;
18019;SDS011;9135;48.362;10.878;2023-05-21T14:52:16;3.42;;;2.13;;
18019;SDS011;9135;48.362;10.878;2023-05-21T14:54:42;5.22;;;2.42;;
18019;SDS011;9135;48.362;10.878;2023-05-21T14:57:08;1.92;;;1.80;;
18019;SDS011;9135;48.362;10.878;2023-05-21T14:59:34;3.47;;;2.22;;
18019;SDS011;9135;48.362;10.878;2023-05-21T15:02:00;2.42;;;2.00;;
18019;SDS011;9135;48.362;10.878;2023-05-21T15:04:26;2.78;;;2.42;;
18019;SDS011;9135;48.362;10.878;2023-05-21T15:06:52;2.35;;;2.15;;
18019;SDS011;9135;48.362;10.878;2023-05-21T15:09:18;3.45;;;2.22;;
18019;SDS011;9135;48.362;10.878;2023-05-21T15:11:44;2.15;;;1.58;;
18019;SDS011;9135;48.362;10.878;2023-05-21T15:14:10;2.92;;;1.75;;
18019;SDS011;9135;48.362;10.878;2023-05-21T15:16:36;5.15;;;2.15;;
18019;SDS011;9135;48.362;10.878;2023-05-21T15:19:02;2.13;;;1.92;;